sensor_id;sensor_type;location;lat;lon;timestamp;pressure;altitude;pressure_sealevel;temperature;humidity
56630;BME280;42502;40.732;-74.254;2023-07-20T00:00:49;100661.53;;;30.46;43.57
56630;BME280;42502;40.732;-74.254;2023-07-20T00:03:12;100656.66;;;30.43;44.39
56630;BME280;42502;40.732;-74.254;2023-07-20T00:05:17;100660.69;;;30.45;43.97
56630;BME280;42502;40.732;-74.254;2023-07-20T00:07:21;100661.09;;;30.47;43.92
56630;BME280;42502;40.732;-74.254;2023-07-20T00:09:22;100663.13;;;30.47;43.93
56630;BME280;42502;40.732;-74.254;2023-07-20T00:11:26;100676.16;;;30.48;43.67
56630;BME280;42502;40.732;-74.254;2023-07-20T00:13:27;100673.28;;;30.48;44.05
56630;BME280;42502;40.732;-74.254;2023-07-20T00:15:28;100676.16;;;30.48;44.17
56630;BME280;42502;40.732;-74.254;2023-07-20T00:17:29;100683.91;;;30.47;43.71
56630;BME280;42502;40.732;-74.254;2023-07-20T00:19:30;100681.03;;;30.47;44.10
56630;BME280;42502;40.732;-74.254;2023-07-20T00:21:32;100669.66;;;30.47;44.08
56630;BME280;42502;40.732;-74.254;2023-07-20T00:23:33;100670.50;;;30.44;43.85
56630;BME280;42502;40.732;-74.254;2023-07-20T00:25:34;100688.34;;;30.48;44.16
56630;BME280;42502;40.732;-74.254;2023-07-20T00:27:36;100690.41;;;30.48;43.73
56630;BME280;42502;40.732;-74.254;2023-07-20T00:29:36;100692.44;;;30.47;44.21
56630;BME280;42502;40.732;-74.254;2023-07-20T00:31:37;100679.84;;;30.45;43.77
56630;BME280;42502;40.732;-74.254;2023-07-20T00:33:38;100694.03;;;30.48;43.90
56630;BME280;42502;40.732;-74.254;2023-07-20T00:35:39;100692.03;;;30.45;44.19
56630;BME280;42502;40.732;-74.254;2023-07-20T00:37:40;100695.72;;;30.46;43.87
56630;BME280;42502;40.732;-74.254;2023-07-20T00:39:41;100697.31;;;30.47;43.74
56630;BME280;42502;40.732;-74.254;2023-07-20T00:41:41;100704.66;;;30.48;44.23
56630;BME280;42502;40.732;-74.254;2023-07-20T00:43:45;100707.50;;;30.48;43.91
56630;BME280;42502;40.732;-74.254;2023-07-20T00:45:46;100707.50;;;30.48;44.27
56630;BME280;42502;40.732;-74.254;2023-07-20T00:47:47;100716.06;;;30.48;43.85
56630;BME280;42502;40.732;-74.254;2023-07-20T00:49:48;100712.81;;;30.46;44.21
56630;BME280;42502;40.732;-74.254;2023-07-20T00:51:49;100718.91;;;30.48;43.86
56630;BME280;42502;40.732;-74.254;2023-07-20T00:53:51;100708.72;;;30.47;44.34
56630;BME280;42502;40.732;-74.254;2023-07-20T00:55:52;100716.84;;;30.48;44.20
56630;BME280;42502;40.732;-74.254;2023-07-20T00:57:53;100708.72;;;30.47;44.05
56630;BME280;42502;40.732;-74.254;2023-07-20T00:59:54;100720.13;;;30.47;43.96
56630;BME280;42502;40.732;-74.254;2023-07-20T01:01:55;100716.06;;;30.48;43.95
56630;BME280;42502;40.732;-74.254;2023-07-20T01:03:55;100718.91;;;30.48;44.41
56630;BME280;42502;40.732;-74.254;2023-07-20T01:10:49;100739.28;;;30.46;44.55
56630;BME280;42502;40.732;-74.254;2023-07-20T01:12:55;100729.50;;;30.47;44.05
56630;BME280;42502;40.732;-74.254;2023-07-20T01:14:56;100749.03;;;30.49;43.85
56630;BME280;42502;40.732;-74.254;2023-07-20T01:16:57;100732.34;;;30.47;44.12
56630;BME280;42502;40.732;-74.254;2023-07-20T01:18:58;100744.56;;;30.48;44.16
56630;BME280;42502;40.732;-74.254;2023-07-20T01:21:03;100742.13;;;30.46;43.95
56630;BME280;42502;40.732;-74.254;2023-07-20T01:23:27;100749.44;;;30.47;43.96
56630;BME280;42502;40.732;-74.254;2023-07-20T01:33:17;100740.50;;;30.45;44.36
56630;BME280;42502;40.732;-74.254;2023-07-20T01:35:19;100744.97;;;30.46;44.37
56630;BME280;42502;40.732;-74.254;2023-07-20T01:37:23;100740.06;;;30.47;44.09
56630;BME280;42502;40.732;-74.254;2023-07-20T01:39:52;100744.59;;;30.44;44.14
56630;BME280;42502;40.732;-74.254;2023-07-20T01:41:52;100745.78;;;30.47;44.42
56630;BME280;42502;40.732;-74.254;2023-07-20T01:43:53;100750.69;;;30.46;44.57
56630;BME280;42502;40.732;-74.254;2023-07-20T01:46:00;100752.72;;;30.46;44.19
56630;BME280;42502;40.732;-74.254;2023-07-20T01:48:01;100754.75;;;30.45;44.58
56630;BME280;42502;40.732;-74.254;2023-07-20T01:50:05;100724.78;;;30.23;44.19
56630;BME280;42502;40.732;-74.254;2023-07-20T01:52:06;100751.09;;;30.45;44.31
56630;BME280;42502;40.732;-74.254;2023-07-20T01:54:07;100748.25;;;30.45;44.43
56630;BME280;42502;40.732;-74.254;2023-07-20T01:56:10;100751.09;;;30.45;44.00
56630;BME280;42502;40.732;-74.254;2023-07-20T01:58:12;100755.16;;;30.44;44.10
56630;BME280;42502;40.732;-74.254;2023-07-20T02:00:13;100746.63;;;30.44;44.56
56630;BME280;42502;40.732;-74.254;2023-07-20T02:02:14;100760.88;;;30.44;44.13
56630;BME280;42502;40.732;-74.254;2023-07-20T02:04:15;100760.06;;;30.43;44.10
56630;BME280;42502;40.732;-74.254;2023-07-20T02:06:16;100759.28;;;30.43;44.20
56630;BME280;42502;40.732;-74.254;2023-07-20T02:08:17;100766.56;;;30.44;44.37
56630;BME280;42502;40.732;-74.254;2023-07-20T02:10:18;100764.97;;;30.43;44.26
56630;BME280;42502;40.732;-74.254;2023-07-20T02:12:19;100760.06;;;30.43;43.93
56630;BME280;42502;40.732;-74.254;2023-07-20T02:14:20;100761.28;;;30.42;44.06
56630;BME280;42502;40.732;-74.254;2023-07-20T02:16:22;100769.03;;;30.42;44.21
56630;BME280;42502;40.732;-74.254;2023-07-20T02:18:23;100767.41;;;30.41;44.08
56630;BME280;42502;40.732;-74.254;2023-07-20T02:20:24;100755.59;;;30.39;44.07
56630;BME280;42502;40.732;-74.254;2023-07-20T02:22:25;100768.25;;;30.41;44.35
56630;BME280;42502;40.732;-74.254;2023-07-20T02:24:26;100760.91;;;30.40;44.54
56630;BME280;42502;40.732;-74.254;2023-07-20T02:26:26;100761.72;;;30.41;44.48
56630;BME280;42502;40.732;-74.254;2023-07-20T02:28:27;100767.41;;;30.41;44.17
56630;BME280;42502;40.732;-74.254;2023-07-20T02:30:29;100764.56;;;30.41;44.46
56630;BME280;42502;40.732;-74.254;2023-07-20T02:32:33;100767.41;;;30.41;44.40
56630;BME280;42502;40.732;-74.254;2023-07-20T02:34:34;100767.41;;;30.41;44.66
56630;BME280;42502;40.732;-74.254;2023-07-20T02:36:38;100764.56;;;30.41;44.52
56630;BME280;42502;40.732;-74.254;2023-07-20T02:38:38;100756.84;;;30.41;44.55
56630;BME280;42502;40.732;-74.254;2023-07-20T02:40:39;100753.16;;;30.41;44.78
56630;BME280;42502;40.732;-74.254;2023-07-20T02:42:45;100744.63;;;30.41;44.39
56630;BME280;42502;40.732;-74.254;2023-07-20T02:44:48;100744.63;;;30.41;44.54
56630;BME280;42502;40.732;-74.254;2023-07-20T02:46:49;100741.34;;;30.42;44.22
56630;BME280;42502;40.732;-74.254;2023-07-20T02:48:50;100744.19;;;30.42;44.75
56630;BME280;42502;40.732;-74.254;2023-07-20T02:50:51;100744.19;;;30.42;44.33
56630;BME280;42502;40.732;-74.254;2023-07-20T02:52:52;100743.38;;;30.42;44.87
56630;BME280;42502;40.732;-74.254;2023-07-20T02:54:53;100734.03;;;30.41;44.38
56630;BME280;42502;40.732;-74.254;2023-07-20T02:56:54;100749.09;;;30.42;44.41
56630;BME280;42502;40.732;-74.254;2023-07-20T02:58:55;100743.38;;;30.42;44.29
56630;BME280;42502;40.732;-74.254;2023-07-20T03:00:56;100749.91;;;30.42;44.28
56630;BME280;42502;40.732;-74.254;2023-07-20T03:02:59;100748.28;;;30.41;44.58
56630;BME280;42502;40.732;-74.254;2023-07-20T03:05:01;100742.59;;;30.41;44.53
56630;BME280;42502;40.732;-74.254;2023-07-20T03:07:04;100737.69;;;30.42;44.57
56630;BME280;42502;40.732;-74.254;2023-07-20T03:09:05;100727.53;;;30.37;44.34
56630;BME280;42502;40.732;-74.254;2023-07-20T03:11:07;100732.78;;;30.42;44.75
56630;BME280;42502;40.732;-74.254;2023-07-20T03:13:08;100722.66;;;30.41;44.35
56630;BME280;42502;40.732;-74.254;2023-07-20T03:15:09;100719.34;;;30.39;44.42
56630;BME280;42502;40.732;-74.254;2023-07-20T03:17:13;100715.31;;;30.40;44.27
56630;BME280;42502;40.732;-74.254;2023-07-20T03:19:13;100708.81;;;30.40;44.30
56630;BME280;42502;40.732;-74.254;2023-07-20T03:21:17;100701.47;;;30.39;44.84
56630;BME280;42502;40.732;-74.254;2023-07-20T03:23:18;100705.53;;;30.41;44.58
56630;BME280;42502;40.732;-74.254;2023-07-20T03:25:19;100708.81;;;30.40;44.62
56630;BME280;42502;40.732;-74.254;2023-07-20T03:27:20;100711.22;;;30.38;44.58
56630;BME280;42502;40.732;-74.254;2023-07-20T03:29:20;100707.16;;;30.35;44.93
56630;BME280;42502;40.732;-74.254;2023-07-20T03:31:21;100711.66;;;30.40;44.34
56630;BME280;42502;40.732;-74.254;2023-07-20T03:33:28;100707.16;;;30.39;44.61
56630;BME280;42502;40.732;-74.254;2023-07-20T03:35:29;100712.06;;;30.38;44.85
56630;BME280;42502;40.732;-74.254;2023-07-20T03:37:31;100708.38;;;30.38;44.60
56630;BME280;42502;40.732;-74.254;2023-07-20T03:39:32;100708.38;;;30.38;44.88
56630;BME280;42502;40.732;-74.254;2023-07-20T03:41:33;100703.91;;;30.37;44.55
56630;BME280;42502;40.732;-74.254;2023-07-20T03:43:33;100702.25;;;30.39;44.55
56630;BME280;42502;40.732;-74.254;2023-07-20T03:45:34;100700.66;;;30.38;44.69
56630;BME280;42502;40.732;-74.254;2023-07-20T03:47:38;100709.59;;;30.37;44.48
56630;BME280;42502;40.732;-74.254;2023-07-20T03:49:39;100712.44;;;30.37;44.60
56630;BME280;42502;40.732;-74.254;2023-07-20T03:51:40;100710.44;;;30.37;44.87
56630;BME280;42502;40.732;-74.254;2023-07-20T03:53:40;100709.59;;;30.37;44.85
56630;BME280;42502;40.732;-74.254;2023-07-20T03:55:52;100715.31;;;30.37;44.73
56630;BME280;42502;40.732;-74.254;2023-07-20T03:57:53;100716.94;;;30.38;44.76
56630;BME280;42502;40.732;-74.254;2023-07-20T03:59:53;100713.28;;;30.37;44.82
56630;BME280;42502;40.732;-74.254;2023-07-20T04:02:13;100725.53;;;30.34;44.36
56630;BME280;42502;40.732;-74.254;2023-07-20T04:04:18;100712.44;;;30.37;44.38
56630;BME280;42502;40.732;-74.254;2023-07-20T04:06:19;100710.44;;;30.37;44.98
56630;BME280;42502;40.732;-74.254;2023-07-20T04:08:20;100715.31;;;30.37;44.72
56630;BME280;42502;40.732;-74.254;2023-07-20T04:10:21;100714.50;;;30.36;44.53
56630;BME280;42502;40.732;-74.254;2023-07-20T04:12:25;100724.28;;;30.35;44.40
56630;BME280;42502;40.732;-74.254;2023-07-20T04:14:26;100726.69;;;30.37;44.76
56630;BME280;42502;40.732;-74.254;2023-07-20T04:16:26;100718.19;;;30.33;44.56
56630;BME280;42502;40.732;-74.254;2023-07-20T04:18:27;100716.16;;;30.34;44.38
56630;BME280;42502;40.732;-74.254;2023-07-20T04:20:28;100723.91;;;30.33;44.75
56630;BME280;42502;40.732;-74.254;2023-07-20T04:22:29;100724.69;;;30.34;44.38
56630;BME280;42502;40.732;-74.254;2023-07-20T04:24:30;100721.84;;;30.34;44.37
56630;BME280;42502;40.732;-74.254;2023-07-20T04:26:30;100723.09;;;30.33;44.49
56630;BME280;42502;40.732;-74.254;2023-07-20T04:28:31;100723.91;;;30.33;44.52
56630;BME280;42502;40.732;-74.254;2023-07-20T04:30:32;100712.50;;;30.33;44.94
56630;BME280;42502;40.732;-74.254;2023-07-20T04:32:33;100709.66;;;30.33;44.84
56630;BME280;42502;40.732;-74.254;2023-07-20T04:34:34;100707.59;;;30.34;44.49
56630;BME280;42502;40.732;-74.254;2023-07-20T04:36:37;100706.00;;;30.33;44.49
56630;BME280;42502;40.732;-74.254;2023-07-20T04:38:41;100703.16;;;30.33;45.08
56630;BME280;42502;40.732;-74.254;2023-07-20T04:40:45;100712.50;;;30.33;44.52
56630;BME280;42502;40.732;-74.254;2023-07-20T04:42:47;100711.28;;;30.30;44.91
56630;BME280;42502;40.732;-74.254;2023-07-20T04:44:48;100699.47;;;30.32;44.91
56630;BME280;42502;40.732;-74.254;2023-07-20T04:46:48;100701.53;;;30.32;44.90
56630;BME280;42502;40.732;-74.254;2023-07-20T04:48:49;100698.66;;;30.32;44.39
56630;BME280;42502;40.732;-74.254;2023-07-20T04:50:50;100702.31;;;30.32;44.44
56630;BME280;42502;40.732;-74.254;2023-07-20T04:52:51;100704.78;;;30.30;44.78
56630;BME280;42502;40.732;-74.254;2023-07-20T04:54:52;100702.75;;;30.30;44.40
56630;BME280;42502;40.732;-74.254;2023-07-20T04:56:53;100694.19;;;30.30;44.47
56630;BME280;42502;40.732;-74.254;2023-07-20T04:58:54;100690.16;;;30.28;44.87
56630;BME280;42502;40.732;-74.254;2023-07-20T05:00:55;100685.66;;;30.30;44.96
56630;BME280;42502;40.732;-74.254;2023-07-20T05:02:56;100688.50;;;30.30;44.98
56630;BME280;42502;40.732;-74.254;2023-07-20T05:04:57;100687.69;;;30.30;44.47
56630;BME280;42502;40.732;-74.254;2023-07-20T05:06:57;100691.78;;;30.29;44.84
56630;BME280;42502;40.732;-74.254;2023-07-20T05:08:58;100678.41;;;30.22;44.41
56630;BME280;42502;40.732;-74.254;2023-07-20T05:10:59;100690.16;;;30.28;44.88
56630;BME280;42502;40.732;-74.254;2023-07-20T05:13:00;100692.19;;;30.27;44.86
56630;BME280;42502;40.732;-74.254;2023-07-20T05:15:04;100691.38;;;30.27;44.56
56630;BME280;42502;40.732;-74.254;2023-07-20T05:17:05;100690.16;;;30.28;44.48
56630;BME280;42502;40.732;-74.254;2023-07-20T05:19:06;100695.03;;;30.27;44.97
56630;BME280;42502;40.732;-74.254;2023-07-20T05:21:10;100700.75;;;30.27;44.93
56630;BME280;42502;40.732;-74.254;2023-07-20T05:23:10;100692.59;;;30.26;44.40
56630;BME280;42502;40.732;-74.254;2023-07-20T05:25:11;100700.75;;;30.27;44.88
56630;BME280;42502;40.732;-74.254;2023-07-20T05:27:12;100699.13;;;30.26;44.80
56630;BME280;42502;40.732;-74.254;2023-07-20T05:29:13;100700.34;;;30.25;44.83
56630;BME280;42502;40.732;-74.254;2023-07-20T05:31:17;100700.34;;;30.25;44.66
56630;BME280;42502;40.732;-74.254;2023-07-20T05:33:19;100693.03;;;30.24;44.90
56630;BME280;42502;40.732;-74.254;2023-07-20T05:35:20;100680.06;;;30.20;44.59
56630;BME280;42502;40.732;-74.254;2023-07-20T05:37:21;100690.19;;;30.24;44.54
56630;BME280;42502;40.732;-74.254;2023-07-20T05:39:22;100689.38;;;30.24;44.86
56630;BME280;42502;40.732;-74.254;2023-07-20T05:41:25;100689.81;;;30.22;44.43
56630;BME280;42502;40.732;-74.254;2023-07-20T05:43:26;100676.41;;;30.19;44.75
56630;BME280;42502;40.732;-74.254;2023-07-20T05:45:27;100634.31;;;29.92;44.53
56630;BME280;42502;40.732;-74.254;2023-07-20T05:47:28;100671.09;;;30.21;44.82
56630;BME280;42502;40.732;-74.254;2023-07-20T05:49:29;100680.47;;;30.22;44.76
56630;BME280;42502;40.732;-74.254;2023-07-20T05:51:30;100684.53;;;30.21;44.90
56630;BME280;42502;40.732;-74.254;2023-07-20T05:53:31;100684.16;;;30.19;44.43
56630;BME280;42502;40.732;-74.254;2023-07-20T05:55:31;100686.59;;;30.20;44.78
56630;BME280;42502;40.732;-74.254;2023-07-20T05:57:33;100687.81;;;30.19;44.46
56630;BME280;42502;40.732;-74.254;2023-07-20T05:59:33;100686.19;;;30.18;44.66
56630;BME280;42502;40.732;-74.254;2023-07-20T06:01:34;100673.28;;;30.06;44.69
56630;BME280;42502;40.732;-74.254;2023-07-20T06:03:35;100700.03;;;30.16;44.51
56630;BME280;42502;40.732;-74.254;2023-07-20T06:05:37;100693.94;;;30.18;44.57
56630;BME280;42502;40.732;-74.254;2023-07-20T06:07:38;100693.97;;;30.14;44.39
56630;BME280;42502;40.732;-74.254;2023-07-20T06:09:39;100689.06;;;30.15;44.59
56630;BME280;42502;40.732;-74.254;2023-07-20T06:11:40;100700.03;;;30.16;44.75
56630;BME280;42502;40.732;-74.254;2023-07-20T06:13:41;100693.53;;;30.16;44.72
56630;BME280;42502;40.732;-74.254;2023-07-20T06:15:44;100704.13;;;30.15;44.90
56630;BME280;42502;40.732;-74.254;2023-07-20T06:17:44;100704.13;;;30.15;44.47
56630;BME280;42502;40.732;-74.254;2023-07-20T06:19:45;100691.91;;;30.15;44.39
56630;BME280;42502;40.732;-74.254;2023-07-20T06:21:46;100679.72;;;30.14;44.45
56630;BME280;42502;40.732;-74.254;2023-07-20T06:23:47;100680.56;;;30.11;44.60
56630;BME280;42502;40.732;-74.254;2023-07-20T06:25:48;100691.13;;;30.14;44.50
56630;BME280;42502;40.732;-74.254;2023-07-20T06:27:50;100693.97;;;30.14;44.62
56630;BME280;42502;40.732;-74.254;2023-07-20T06:30:00;100689.50;;;30.13;44.92
56630;BME280;42502;40.732;-74.254;2023-07-20T06:32:00;100694.38;;;30.12;44.47
56630;BME280;42502;40.732;-74.254;2023-07-20T06:34:01;100685.00;;;30.12;44.41
56630;BME280;42502;40.732;-74.254;2023-07-20T06:36:03;100679.31;;;30.12;44.43
56630;BME280;42502;40.732;-74.254;2023-07-20T06:38:04;100681.78;;;30.10;44.85
56630;BME280;42502;40.732;-74.254;2023-07-20T06:40:06;100683.84;;;30.09;44.98
56630;BME280;42502;40.732;-74.254;2023-07-20T06:42:09;100687.47;;;30.10;44.49
56630;BME280;42502;40.732;-74.254;2023-07-20T06:44:10;100683.00;;;30.09;44.87
56630;BME280;42502;40.732;-74.254;2023-07-20T06:46:11;100679.78;;;30.07;44.73
56630;BME280;42502;40.732;-74.254;2023-07-20T06:48:12;100686.28;;;30.07;44.47
56630;BME280;42502;40.732;-74.254;2023-07-20T06:50:13;100686.28;;;30.07;44.99
56630;BME280;42502;40.732;-74.254;2023-07-20T06:52:14;100675.72;;;30.08;44.88
56630;BME280;42502;40.732;-74.254;2023-07-20T06:54:15;100665.53;;;30.07;44.37
56630;BME280;42502;40.732;-74.254;2023-07-20T06:56:16;100661.06;;;30.06;44.72
56630;BME280;42502;40.732;-74.254;2023-07-20T06:58:20;100670.81;;;30.05;44.97
56630;BME280;42502;40.732;-74.254;2023-07-20T07:00:25;100661.91;;;30.03;44.85
56630;BME280;42502;40.732;-74.254;2023-07-20T07:02:25;100660.69;;;30.04;44.94
56630;BME280;42502;40.732;-74.254;2023-07-20T07:04:26;100663.53;;;30.04;45.01
56630;BME280;42502;40.732;-74.254;2023-07-20T07:06:28;100664.34;;;30.04;44.93
56630;BME280;42502;40.732;-74.254;2023-07-20T07:08:29;100660.28;;;30.02;44.60
56630;BME280;42502;40.732;-74.254;2023-07-20T07:10:30;100657.44;;;30.02;44.49
56630;BME280;42502;40.732;-74.254;2023-07-20T07:12:31;100652.56;;;30.02;44.95
56630;BME280;42502;40.732;-74.254;2023-07-20T07:14:35;100648.88;;;30.02;44.76
56630;BME280;42502;40.732;-74.254;2023-07-20T07:16:35;100646.03;;;30.02;44.53
56630;BME280;42502;40.732;-74.254;2023-07-20T07:18:36;100638.75;;;30.01;44.88
56630;BME280;42502;40.732;-74.254;2023-07-20T07:20:37;100639.97;;;30.00;44.82
56630;BME280;42502;40.732;-74.254;2023-07-20T07:22:43;100632.63;;;29.99;44.37
56630;BME280;42502;40.732;-74.254;2023-07-20T07:24:51;100638.34;;;29.99;44.39
56630;BME280;42502;40.732;-74.254;2023-07-20T07:26:55;100633.88;;;29.98;44.61
56630;BME280;42502;40.732;-74.254;2023-07-20T07:29:03;100636.75;;;29.98;44.48
56630;BME280;42502;40.732;-74.254;2023-07-20T07:31:07;100631.47;;;29.96;44.39
56630;BME280;42502;40.732;-74.254;2023-07-20T07:33:08;100629.03;;;29.94;44.59
56630;BME280;42502;40.732;-74.254;2023-07-20T07:35:10;100618.94;;;29.86;44.90
56630;BME280;42502;40.732;-74.254;2023-07-20T07:37:11;100642.03;;;29.95;44.57
56630;BME280;42502;40.732;-74.254;2023-07-20T07:39:11;100635.94;;;29.93;44.85
56630;BME280;42502;40.732;-74.254;2023-07-20T07:41:13;100637.56;;;29.94;45.05
56630;BME280;42502;40.732;-74.254;2023-07-20T07:43:14;100627.44;;;29.90;44.60
56630;BME280;42502;40.732;-74.254;2023-07-20T07:45:15;100635.94;;;29.93;44.43
56630;BME280;42502;40.732;-74.254;2023-07-20T07:47:17;100634.31;;;29.92;44.47
56630;BME280;42502;40.732;-74.254;2023-07-20T07:49:17;100638.41;;;29.91;44.73
56630;BME280;42502;40.732;-74.254;2023-07-20T07:51:19;100623.41;;;29.87;45.00
56630;BME280;42502;40.732;-74.254;2023-07-20T07:53:20;100642.50;;;29.90;44.95
56630;BME280;42502;40.732;-74.254;2023-07-20T07:55:21;100650.22;;;29.90;44.76
56630;BME280;42502;40.732;-74.254;2023-07-20T07:57:22;100639.66;;;29.90;44.43
56630;BME280;42502;40.732;-74.254;2023-07-20T07:59:23;100640.88;;;29.89;44.86
56630;BME280;42502;40.732;-74.254;2023-07-20T08:01:23;100639.25;;;29.88;44.85
56630;BME280;42502;40.732;-74.254;2023-07-20T08:03:24;100633.16;;;29.86;45.10
56630;BME280;42502;40.732;-74.254;2023-07-20T08:05:26;100640.50;;;29.87;44.87
56630;BME280;42502;40.732;-74.254;2023-07-20T08:07:27;100643.75;;;29.86;45.09
56630;BME280;42502;40.732;-74.254;2023-07-20T08:09:28;100639.69;;;29.87;45.09
56630;BME280;42502;40.732;-74.254;2023-07-20T08:11:29;100638.84;;;29.86;45.02
56630;BME280;42502;40.732;-74.254;2023-07-20T08:13:34;100634.41;;;29.85;44.46
56630;BME280;42502;40.732;-74.254;2023-07-20T08:15:35;100632.78;;;29.84;44.85
56630;BME280;42502;40.732;-74.254;2023-07-20T08:17:36;100636.44;;;29.85;44.42
56630;BME280;42502;40.732;-74.254;2023-07-20T08:19:37;100641.31;;;29.84;44.44
56630;BME280;42502;40.732;-74.254;2023-07-20T08:21:42;100635.63;;;29.84;44.75
56630;BME280;42502;40.732;-74.254;2023-07-20T08:23:42;100629.13;;;29.84;44.43
56630;BME280;42502;40.732;-74.254;2023-07-20T08:25:43;100634.00;;;29.83;44.44
56630;BME280;42502;40.732;-74.254;2023-07-20T08:27:44;100624.69;;;29.79;44.79
56630;BME280;42502;40.732;-74.254;2023-07-20T08:29:46;100629.56;;;29.82;44.51
56630;BME280;42502;40.732;-74.254;2023-07-20T08:31:47;100640.13;;;29.82;44.85
56630;BME280;42502;40.732;-74.254;2023-07-20T08:33:49;100636.47;;;29.81;44.37
56630;BME280;42502;40.732;-74.254;2023-07-20T08:35:50;100627.13;;;29.81;44.61
56630;BME280;42502;40.732;-74.254;2023-07-20T08:37:50;100627.53;;;29.79;44.55
56630;BME280;42502;40.732;-74.254;2023-07-20T08:39:51;100620.63;;;29.76;44.42
56630;BME280;42502;40.732;-74.254;2023-07-20T08:41:52;100621.41;;;29.77;44.67
56630;BME280;42502;40.732;-74.254;2023-07-20T08:43:54;100621.41;;;29.77;44.45
56630;BME280;42502;40.732;-74.254;2023-07-20T08:45:58;100628.38;;;29.76;44.49
56630;BME280;42502;40.732;-74.254;2023-07-20T08:48:01;100623.47;;;29.76;44.44
56630;BME280;42502;40.732;-74.254;2023-07-20T08:50:05;100623.47;;;29.73;44.92
56630;BME280;42502;40.732;-74.254;2023-07-20T08:52:08;100639.75;;;29.76;44.48
56630;BME280;42502;40.732;-74.254;2023-07-20T08:54:09;100635.28;;;29.75;44.51
56630;BME280;42502;40.732;-74.254;2023-07-20T08:56:13;100630.00;;;29.73;44.45
56630;BME280;42502;40.732;-74.254;2023-07-20T08:58:17;100636.91;;;29.76;44.93
56630;BME280;42502;40.732;-74.254;2023-07-20T09:00:20;100628.75;;;29.74;44.37
56630;BME280;42502;40.732;-74.254;2023-07-20T09:02:24;100633.66;;;29.74;44.84
56630;BME280;42502;40.732;-74.254;2023-07-20T09:04:26;100634.88;;;29.73;44.42
56630;BME280;42502;40.732;-74.254;2023-07-20T09:06:27;100636.06;;;29.75;44.10
56630;BME280;42502;40.732;-74.254;2023-07-20T09:08:28;100629.59;;;29.75;44.87
56630;BME280;42502;40.732;-74.254;2023-07-20T09:10:29;100636.50;;;29.74;44.70
56630;BME280;42502;40.732;-74.254;2023-07-20T09:12:30;100636.13;;;29.72;44.29
56630;BME280;42502;40.732;-74.254;2023-07-20T09:14:31;100635.28;;;29.71;44.45
56630;BME280;42502;40.732;-74.254;2023-07-20T09:16:38;100625.56;;;29.69;44.39
56630;BME280;42502;40.732;-74.254;2023-07-20T09:18:47;100629.63;;;29.68;44.75
56630;BME280;42502;40.732;-74.254;2023-07-20T09:20:48;100632.47;;;29.68;44.26
56630;BME280;42502;40.732;-74.254;2023-07-20T09:22:50;100634.53;;;29.67;44.85
56630;BME280;42502;40.732;-74.254;2023-07-20T09:24:55;100634.94;;;29.66;44.30
56630;BME280;42502;40.732;-74.254;2023-07-20T09:26:56;100643.50;;;29.66;44.95
56630;BME280;42502;40.732;-74.254;2023-07-20T09:29:07;100640.22;;;29.64;44.60
56630;BME280;42502;40.732;-74.254;2023-07-20T09:31:20;100642.28;;;29.63;44.47
56630;BME280;42502;40.732;-74.254;2023-07-20T09:33:21;100650.41;;;29.65;44.49
56630;BME280;42502;40.732;-74.254;2023-07-20T09:35:23;100652.44;;;29.64;44.92
56630;BME280;42502;40.732;-74.254;2023-07-20T09:37:26;100647.97;;;29.63;44.37
56630;BME280;42502;40.732;-74.254;2023-07-20T09:39:28;100648.38;;;29.62;44.42
56630;BME280;42502;40.732;-74.254;2023-07-20T09:41:30;100636.22;;;29.57;44.59
56630;BME280;42502;40.732;-74.254;2023-07-20T09:43:32;100649.59;;;29.60;44.42
56630;BME280;42502;40.732;-74.254;2023-07-20T09:45:39;100651.69;;;29.56;44.75
56630;BME280;42502;40.732;-74.254;2023-07-20T09:47:41;100658.16;;;29.60;44.91
56630;BME280;42502;40.732;-74.254;2023-07-20T09:49:42;100653.72;;;29.59;44.47
56630;BME280;42502;40.732;-74.254;2023-07-20T09:51:45;100661.00;;;29.60;44.33
56630;BME280;42502;40.732;-74.254;2023-07-20T09:53:47;100653.72;;;29.59;44.77
56630;BME280;42502;40.732;-74.254;2023-07-20T09:55:49;100655.34;;;29.57;44.97
56630;BME280;42502;40.732;-74.254;2023-07-20T09:57:50;100656.13;;;29.57;44.38
56630;BME280;42502;40.732;-74.254;2023-07-20T09:59:53;100652.50;;;29.57;44.90
56630;BME280;42502;40.732;-74.254;2023-07-20T10:01:58;100652.13;;;29.55;44.58
56630;BME280;42502;40.732;-74.254;2023-07-20T10:04:02;100650.88;;;29.56;44.46
56630;BME280;42502;40.732;-74.254;2023-07-20T10:06:06;100651.69;;;29.56;44.63
56630;BME280;42502;40.732;-74.254;2023-07-20T10:08:11;100653.72;;;29.56;44.75
56630;BME280;42502;40.732;-74.254;2023-07-20T10:10:14;100638.72;;;29.48;44.67
56630;BME280;42502;40.732;-74.254;2023-07-20T10:12:25;100646.00;;;29.53;44.76
56630;BME280;42502;40.732;-74.254;2023-07-20T10:14:30;100649.25;;;29.55;44.45
56630;BME280;42502;40.732;-74.254;2023-07-20T10:16:35;100661.06;;;29.53;44.36
56630;BME280;42502;40.732;-74.254;2023-07-20T10:19:11;100667.19;;;29.52;44.77
56630;BME280;42502;40.732;-74.254;2023-07-20T10:21:17;100661.06;;;29.53;44.83
56630;BME280;42502;40.732;-74.254;2023-07-20T10:23:21;100658.63;;;29.52;44.43
56630;BME280;42502;40.732;-74.254;2023-07-20T10:25:23;100659.44;;;29.52;44.47
56630;BME280;42502;40.732;-74.254;2023-07-20T10:27:24;100661.50;;;29.52;44.77
56630;BME280;42502;40.732;-74.254;2023-07-20T10:29:26;100654.97;;;29.51;44.82
56630;BME280;42502;40.732;-74.254;2023-07-20T10:31:28;100645.66;;;29.47;44.79
56630;BME280;42502;40.732;-74.254;2023-07-20T10:33:29;100658.66;;;29.48;44.88
56630;BME280;42502;40.732;-74.254;2023-07-20T10:35:56;100657.03;;;29.47;44.46